Time;durP1;ratioP1;P1;durP2;ratioP2;P2;SDS_P1;SDS_P2;PMS_P1;PMS_P2;Temp;Humidity;BMP_temperature;BMP_pressure;BME280_temperature;BME280_humidity;BME280_pressure;Samples;Min_cycle;Max_cycle;Signal;HPM_P1;HPM_P2
2023/09/18 00:01:39;;;;;;;3.28;2.47;;;22.70;93.90;;;;;;5025423;28;20045;-18
2023/09/18 00:04:06;;;;;;;3.65;2.42;;;22.70;93.90;;;;;;5044391;28;20049;-18
2023/09/18 00:06:35;;;;;;;4.28;2.67;;;22.70;94.00;;;;;;5023225;28;20192;-18
2023/09/18 00:09:00;;;;;;;3.13;2.45;;;22.70;94.00;;;;;;5029072;28;20702;-18
2023/09/18 00:11:27;;;;;;;3.60;2.60;;;22.70;94.00;;;;;;5008253;28;20048;-18
2023/09/18 00:13:52;;;;;;;4.00;2.38;;;22.70;94.10;;;;;;5020561;28;20056;-18
2023/09/18 00:16:18;;;;;;;4.00;2.50;;;22.60;94.00;;;;;;5027387;28;20037;-18
2023/09/18 00:18:44;;;;;;;4.30;2.45;;;22.60;94.10;;;;;;5028872;28;20021;-18
2023/09/18 00:21:11;;;;;;;4.20;2.55;;;22.80;94.50;;;;;;5021241;28;20103;-19
2023/09/18 00:23:37;;;;;;;3.67;2.40;;;22.60;94.20;;;;;;5031676;28;20030;-18
2023/09/18 00:26:03;;;;;;;3.60;2.35;;;22.70;94.20;;;;;;5005821;28;20028;-18
2023/09/18 00:28:29;;;;;;;3.75;2.30;;;22.60;94.20;;;;;;5018097;28;20227;-18
2023/09/18 00:30:55;;;;;;;3.47;2.28;;;22.70;94.30;;;;;;5044728;28;20090;-18
2023/09/18 00:33:21;;;;;;;3.47;2.27;;;22.70;94.40;;;;;;5021619;28;20488;-18
2023/09/18 00:35:51;;;;;;;2.92;2.25;;;22.70;94.40;;;;;;5023705;28;20492;-18
2023/09/18 00:38:19;;;;;;;3.10;2.15;;;22.80;94.50;;;;;;5045470;28;20021;-18
2023/09/18 00:40:45;;;;;;;4.03;2.13;;;22.70;94.40;;;;;;5008087;28;20032;-18
2023/09/18 00:43:11;;;;;;;3.10;2.22;;;22.70;94.50;;;;;;5046142;28;20025;-18
2023/09/18 00:45:41;;;;;;;3.20;2.40;;;22.80;94.50;;;;;;5020038;28;20601;-18
2023/09/18 00:48:08;;;;;;;3.10;2.25;;;22.70;94.60;;;;;;5027449;28;20025;-18
2023/09/18 00:50:34;;;;;;;4.10;2.30;;;22.80;94.60;;;;;;5038724;28;20238;-18
2023/09/18 00:53:01;;;;;;;2.83;2.10;;;22.80;94.60;;;;;;5026625;28;20029;-18
2023/09/18 00:55:29;;;;;;;3.03;2.22;;;22.80;94.60;;;;;;5035828;28;20029;-18
2023/09/18 00:57:56;;;;;;;3.25;2.25;;;22.80;94.60;;;;;;5013204;28;20079;-18
2023/09/18 01:00:22;;;;;;;2.83;2.20;;;22.80;94.60;;;;;;5016461;28;20045;-16
2023/09/18 01:02:48;;;;;;;3.53;2.27;;;22.80;94.60;;;;;;5025758;28;20120;-16
2023/09/18 01:05:20;;;;;;;3.63;2.25;;;24.20;95.30;;;;;;5065568;22;20065;-18
2023/09/18 01:07:46;;;;;;;3.47;2.03;;;22.80;94.60;;;;;;5039456;28;20316;-19
2023/09/18 01:10:16;;;;;;;3.08;2.20;;;22.80;94.60;;;;;;5061207;28;20522;-20
2023/09/18 01:12:57;;;;;;;3.00;2.03;;;22.80;94.60;;;;;;5032878;28;20321;-19
2023/09/18 01:15:32;;;;;;;3.15;2.45;;;22.80;94.70;;;;;;5045778;28;20276;-20
2023/09/18 01:17:59;;;;;;;3.50;2.33;;;22.80;94.60;;;;;;5048460;28;20029;-19
2023/09/18 01:20:25;;;;;;;2.80;2.13;;;22.70;94.50;;;;;;5061538;28;20077;-19
2023/09/18 01:22:51;;;;;;;3.10;2.40;;;22.70;94.50;;;;;;5031437;28;20142;-20
2023/09/18 01:25:17;;;;;;;2.77;2.10;;;22.70;94.60;;;;;;5038593;28;20025;-20
2023/09/18 01:27:42;;;;;;;3.42;2.30;;;22.70;94.70;;;;;;5026562;28;20265;-19
2023/09/18 01:30:08;;;;;;;4.33;2.73;;;22.70;94.70;;;;;;5055958;28;20565;-20
2023/09/18 01:32:38;;;;;;;4.45;2.40;;;22.70;94.80;;;;;;5038338;28;20103;-20
2023/09/18 01:35:07;;;;;;;3.53;2.50;;;22.70;94.90;;;;;;5048990;28;20032;-19
2023/09/18 01:37:35;;;;;;;3.40;2.30;;;22.70;94.90;;;;;;5052325;28;20040;-20
2023/09/18 01:40:06;;;;;;;3.83;2.10;;;22.70;95.00;;;;;;5061270;28;20387;-20
2023/09/18 01:42:32;;;;;;;3.50;2.30;;;22.70;95.00;;;;;;5052129;28;20104;-20
2023/09/18 01:44:58;;;;;;;2.85;2.10;;;22.70;95.10;;;;;;5028947;28;20016;-19
2023/09/18 01:47:24;;;;;;;3.53;2.20;;;22.70;95.10;;;;;;5038559;28;20041;-19
2023/09/18 01:49:49;;;;;;;2.87;2.30;;;22.70;95.10;;;;;;5043381;28;20400;-19
2023/09/18 01:52:15;;;;;;;2.63;2.08;;;22.70;95.00;;;;;;5063399;28;20064;-19
2023/09/18 01:54:41;;;;;;;3.73;2.10;;;22.60;95.00;;;;;;5045125;28;20476;-19
2023/09/18 01:57:07;;;;;;;3.67;2.10;;;22.60;95.00;;;;;;5061272;28;20089;-19
2023/09/18 01:59:33;;;;;;;2.83;2.10;;;22.60;95.40;;;;;;5038822;28;20021;-19
2023/09/18 02:01:59;;;;;;;2.85;1.98;;;22.60;95.10;;;;;;5058938;28;20024;-19
2023/09/18 02:04:27;;;;;;;3.47;2.20;;;22.60;95.20;;;;;;5027989;28;20041;-19
2023/09/18 02:06:53;;;;;;;3.03;2.03;;;22.60;95.30;;;;;;5031672;28;20025;-19
2023/09/18 02:09:18;;;;;;;2.50;1.98;;;22.50;95.30;;;;;;5042524;28;20037;-19
2023/09/18 02:11:47;;;;;;;3.22;2.10;;;22.50;95.30;;;;;;5028658;28;20029;-19
2023/09/18 02:14:16;;;;;;;3.05;2.30;;;22.50;95.40;;;;;;5038066;28;20511;-19
2023/09/18 02:16:43;;;;;;;2.67;1.90;;;22.50;95.50;;;;;;5008793;28;20625;-19
2023/09/18 02:19:10;;;;;;;2.58;2.03;;;22.50;95.40;;;;;;5019733;28;20028;-19
2023/09/18 02:21:36;;;;;;;4.60;1.98;;;22.50;95.50;;;;;;5020739;28;20040;-19
2023/09/18 02:24:03;;;;;;;3.72;2.20;;;22.50;95.50;;;;;;5043258;28;20510;-19
2023/09/18 02:26:29;;;;;;;3.10;1.98;;;22.40;95.50;;;;;;5025341;28;20911;-19
2023/09/18 02:28:58;;;;;;;2.90;2.20;;;22.40;95.60;;;;;;5038846;28;20049;-19
2023/09/18 02:31:23;;;;;;;3.58;2.10;;;22.40;95.60;;;;;;5014129;28;20037;-19
2023/09/18 02:33:49;;;;;;;3.08;2.08;;;22.40;95.70;;;;;;5027444;28;20471;-19
2023/09/18 02:36:15;;;;;;;3.30;2.17;;;22.40;95.70;;;;;;5034099;28;20151;-19
2023/09/18 02:38:41;;;;;;;3.65;2.13;;;22.40;95.70;;;;;;5021857;28;20055;-19
2023/09/18 02:41:07;;;;;;;4.65;2.30;;;22.40;95.80;;;;;;5023494;28;20075;-19
2023/09/18 02:43:33;;;;;;;4.23;2.50;;;22.40;95.80;;;;;;5040609;28;20488;-19
2023/09/18 02:45:58;;;;;;;3.42;2.30;;;22.30;95.80;;;;;;5015926;28;20025;-18
2023/09/18 02:48:24;;;;;;;3.17;2.20;;;22.40;95.90;;;;;;5032062;28;20041;-19
2023/09/18 02:50:50;;;;;;;3.55;2.03;;;22.30;95.80;;;;;;5026199;28;20277;-19
2023/09/18 02:53:21;;;;;;;2.93;2.20;;;22.30;95.90;;;;;;5030047;28;20032;-19
2023/09/18 02:55:48;;;;;;;3.35;2.17;;;22.30;96.00;;;;;;5019757;28;20044;-19
2023/09/18 02:58:14;;;;;;;2.75;2.10;;;22.30;96.40;;;;;;5030416;28;20037;-19
2023/09/18 03:00:44;;;;;;;2.80;2.10;;;22.30;95.90;;;;;;5006960;28;20466;-19
2023/09/18 03:03:10;;;;;;;2.90;2.20;;;22.20;96.00;;;;;;5034597;28;20043;-19
2023/09/18 03:05:37;;;;;;;3.80;2.25;;;22.20;96.00;;;;;;5038747;28;20136;-19
2023/09/18 03:08:03;;;;;;;2.67;1.90;;;22.20;96.00;;;;;;5023191;28;20078;-19
2023/09/18 03:10:36;;;;;;;3.20;2.10;;;22.20;96.10;;;;;;5032925;28;20091;-19
2023/09/18 03:13:02;;;;;;;3.83;2.20;;;22.10;96.20;;;;;;5038033;28;20020;-19
2023/09/18 03:15:29;;;;;;;3.03;2.00;;;22.10;96.20;;;;;;5035236;28;20028;-19
2023/09/18 03:17:55;;;;;;;3.75;2.20;;;22.10;96.20;;;;;;5011561;28;20213;-19
2023/09/18 03:20:27;;;;;;;3.00;2.05;;;22.10;96.30;;;;;;5042858;28;20487;-19
2023/09/18 03:22:56;;;;;;;3.40;2.25;;;22.10;96.40;;;;;;5004635;28;20063;-19
2023/09/18 03:25:22;;;;;;;2.90;1.87;;;22.10;96.40;;;;;;5040533;28;20373;-19
2023/09/18 03:27:51;;;;;;;2.83;2.03;;;22.10;96.40;;;;;;5020320;28;20660;-19
2023/09/18 03:30:18;;;;;;;4.22;2.10;;;22.10;96.40;;;;;;5029959;28;20036;-19
2023/09/18 03:32:44;;;;;;;3.80;2.15;;;22.10;96.40;;;;;;5007282;28;20025;-19
2023/09/18 03:35:17;;;;;;;4.83;2.27;;;22.00;96.40;;;;;;5040665;28;20048;-19
2023/09/18 03:37:44;;;;;;;3.00;2.10;;;22.00;96.40;;;;;;5024216;28;20033;-19
2023/09/18 03:40:10;;;;;;;3.38;2.22;;;22.10;96.50;;;;;;5031102;28;20032;-19
2023/09/18 03:42:36;;;;;;;2.75;2.17;;;22.10;97.10;;;;;;5025735;28;20037;-19
2023/09/18 03:45:03;;;;;;;3.83;2.00;;;22.00;96.50;;;;;;5035847;28;20032;-19
2023/09/18 03:47:28;;;;;;;4.63;2.00;;;22.00;96.60;;;;;;5023337;28;20491;-19
2023/09/18 03:49:54;;;;;;;2.67;2.00;;;22.00;96.50;;;;;;5026659;28;20116;-19
2023/09/18 03:52:20;;;;;;;3.37;2.07;;;22.00;96.50;;;;;;5022586;28;20174;-19
2023/09/18 03:54:46;;;;;;;3.40;2.05;;;22.00;96.50;;;;;;5018237;28;20055;-19
2023/09/18 03:57:11;;;;;;;2.97;1.90;;;22.00;96.60;;;;;;5020452;28;20031;-19
2023/09/18 03:59:37;;;;;;;2.50;1.73;;;22.00;96.60;;;;;;5039811;28;20274;-19
2023/09/18 04:02:03;;;;;;;2.67;1.95;;;21.90;96.60;;;;;;5037166;28;20056;-19
2023/09/18 04:04:29;;;;;;;3.20;2.10;;;22.00;96.70;;;;;;5014240;28;20098;-18
2023/09/18 04:06:55;;;;;;;2.72;1.80;;;21.90;96.60;;;;;;5026976;28;20064;-19
2023/09/18 04:09:21;;;;;;;2.58;1.65;;;22.00;96.60;;;;;;5023936;28;20041;-19
2023/09/18 04:11:47;;;;;;;2.77;1.97;;;21.90;96.60;;;;;;5028642;28;20036;-19
2023/09/18 04:14:12;;;;;;;3.47;1.85;;;21.90;96.60;;;;;;5041302;28;20122;-19
2023/09/18 04:16:41;;;;;;;2.60;1.57;;;21.90;96.60;;;;;;5040105;28;20033;-19
2023/09/18 04:19:08;;;;;;;1.92;1.50;;;21.90;96.50;;;;;;5012042;28;20121;-19
2023/09/18 04:21:33;;;;;;;1.83;1.33;;;21.80;96.50;;;;;;5041472;28;20751;-18
2023/09/18 04:23:59;;;;;;;1.83;1.47;;;21.90;96.50;;;;;;5032998;28;20108;-19
2023/09/18 04:26:33;;;;;;;2.13;1.40;;;21.80;96.50;;;;;;5020599;28;20040;-19
2023/09/18 04:29:00;;;;;;;2.20;1.30;;;21.80;96.50;;;;;;5041232;28;20033;-19
2023/09/18 04:31:27;;;;;;;1.67;1.30;;;21.80;96.50;;;;;;5040298;28;20039;-19
2023/09/18 04:33:53;;;;;;;1.88;1.40;;;21.80;96.50;;;;;;5019725;28;20084;-19
2023/09/18 04:36:19;;;;;;;1.70;1.20;;;21.80;96.50;;;;;;5040632;28;20297;-19
2023/09/18 04:38:45;;;;;;;1.63;1.13;;;21.80;96.60;;;;;;5025274;28;20837;-19
2023/09/18 04:41:11;;;;;;;1.92;1.20;;;21.70;96.50;;;;;;5025724;28;20122;-19
2023/09/18 04:43:40;;;;;;;1.97;1.13;;;21.70;96.50;;;;;;5029165;28;20032;-19
2023/09/18 04:46:06;;;;;;;1.38;1.02;;;21.70;96.50;;;;;;5034089;28;20400;-19
2023/09/18 04:48:32;;;;;;;2.97;1.13;;;21.70;96.50;;;;;;5038917;28;20044;-19
2023/09/18 04:50:59;;;;;;;2.17;1.25;;;21.70;96.50;;;;;;5014855;28;20052;-19
2023/09/18 04:53:27;;;;;;;1.50;1.00;;;21.70;96.50;;;;;;5030008;28;20021;-19
2023/09/18 04:55:53;;;;;;;2.07;1.20;;;20.90;96.90;;;;;;5029406;28;20039;-19
2023/09/18 04:58:18;;;;;;;1.30;1.00;;;21.60;96.40;;;;;;5031906;28;20431;-19
2023/09/18 05:00:46;;;;;;;2.13;1.20;;;21.60;96.40;;;;;;5040341;28;20087;-19
2023/09/18 05:03:12;;;;;;;2.17;1.00;;;21.60;96.40;;;;;;5030050;28;20079;-19
2023/09/18 05:05:38;;;;;;;1.20;0.90;;;21.50;96.40;;;;;;5012024;28;20043;-19
2023/09/18 05:08:09;;;;;;;1.05;0.90;;;21.50;96.40;;;;;;5024567;28;20025;-19
2023/09/18 05:10:35;;;;;;;1.83;1.00;;;21.50;96.40;;;;;;5016736;28;20571;-19
2023/09/18 05:13:01;;;;;;;1.35;1.00;;;21.50;96.50;;;;;;5039375;28;20799;-19
2023/09/18 05:15:29;;;;;;;2.87;1.20;;;21.50;96.50;;;;;;5028765;28;20029;-19
2023/09/18 05:17:57;;;;;;;1.52;0.93;;;21.40;96.50;;;;;;5035811;28;20017;-19
2023/09/18 05:20:24;;;;;;;2.80;1.30;;;21.40;96.50;;;;;;5016817;28;20133;-19
2023/09/18 05:22:52;;;;;;;1.95;1.05;;;21.40;96.50;;;;;;5045430;28;20566;-19
2023/09/18 05:25:19;;;;;;;1.90;1.00;;;21.40;96.60;;;;;;4997067;28;20075;-19
2023/09/18 05:27:45;;;;;;;1.77;0.95;;;21.40;96.60;;;;;;5023810;28;20040;-19
2023/09/18 05:30:13;;;;;;;2.00;1.00;;;21.30;96.70;;;;;;5026934;28;20035;-19
2023/09/18 05:32:39;;;;;;;1.98;1.10;;;21.30;96.70;;;;;;5032014;28;20068;-19
2023/09/18 05:35:06;;;;;;;1.33;1.00;;;21.30;96.70;;;;;;5044438;28;20040;-18
2023/09/18 05:37:32;;;;;;;1.05;0.90;;;21.70;96.80;;;;;;5019126;28;20070;-19
2023/09/18 05:39:58;;;;;;;1.55;0.80;;;20.50;97.10;;;;;;5009236;28;20025;-19
2023/09/18 05:42:24;;;;;;;1.20;0.95;;;21.20;96.60;;;;;;5023529;28;20639;-19
2023/09/18 05:44:50;;;;;;;1.87;0.90;;;21.30;96.70;;;;;;5034072;28;20045;-19
2023/09/18 05:47:16;;;;;;;1.42;0.90;;;21.30;96.70;;;;;;5023620;28;20542;-19
2023/09/18 05:49:42;;;;;;;0.90;0.80;;;20.30;97.10;;;;;;5042533;28;20398;-19
2023/09/18 05:52:08;;;;;;;1.70;0.90;;;21.30;96.70;;;;;;5007696;28;20036;-19
2023/09/18 05:54:33;;;;;;;1.20;0.90;;;21.70;97.40;;;;;;5032022;28;20029;-18
2023/09/18 05:57:01;;;;;;;1.60;0.90;;;21.50;97.30;;;;;;5015589;28;20068;-19
2023/09/18 05:59:27;;;;;;;1.17;0.80;;;21.20;96.70;;;;;;5030608;28;20615;-19
2023/09/18 06:01:53;;;;;;;1.00;0.80;;;21.20;96.70;;;;;;5027233;28;20094;-19
2023/09/18 06:04:20;;;;;;;1.25;0.80;;;21.20;96.70;;;;;;5041468;28;20079;-19
2023/09/18 06:06:46;;;;;;;0.87;0.70;;;21.20;96.70;;;;;;5015653;28;20057;-19
2023/09/18 06:09:12;;;;;;;1.73;1.00;;;21.20;96.70;;;;;;5022707;28;20258;-18
2023/09/18 06:11:38;;;;;;;2.28;0.95;;;21.20;96.70;;;;;;5022721;28;20021;-18
2023/09/18 06:14:03;;;;;;;1.33;0.90;;;21.20;96.70;;;;;;5030761;28;20449;-18
2023/09/18 06:16:31;;;;;;;1.40;1.00;;;21.20;96.70;;;;;;5025436;28;20048;-19
2023/09/18 06:18:56;;;;;;;1.60;1.00;;;21.20;96.80;;;;;;5034842;28;20040;-19
2023/09/18 06:21:22;;;;;;;1.00;0.80;;;21.10;96.80;;;;;;5019755;28;20025;-19
2023/09/18 06:23:48;;;;;;;1.90;1.05;;;21.10;96.80;;;;;;5015762;28;20043;-19
2023/09/18 06:26:14;;;;;;;1.07;0.90;;;21.10;96.80;;;;;;5009249;28;20032;-19
2023/09/18 06:28:40;;;;;;;2.08;1.00;;;21.10;96.90;;;;;;5025599;28;20162;-19
2023/09/18 06:31:05;;;;;;;1.00;0.90;;;21.20;96.90;;;;;;5003594;28;20036;-19
2023/09/18 06:33:31;;;;;;;2.07;0.90;;;21.20;97.00;;;;;;5029111;28;20290;-19
2023/09/18 06:35:58;;;;;;;1.10;0.80;;;21.20;97.00;;;;;;5026453;28;20035;-19
2023/09/18 06:38:23;;;;;;;2.00;0.90;;;21.70;98.00;;;;;;5012810;28;20021;-19
2023/09/18 06:40:50;;;;;;;1.13;0.80;;;21.20;97.00;;;;;;5030151;28;20083;-18
2023/09/18 06:43:15;;;;;;;1.45;0.90;;;21.20;97.00;;;;;;5026383;28;20351;-18
2023/09/18 06:45:41;;;;;;;1.20;1.00;;;21.20;97.00;;;;;;5022444;28;20017;-18
2023/09/18 06:48:07;;;;;;;2.58;1.00;;;21.30;97.00;;;;;;5036303;28;20021;-19
2023/09/18 06:50:33;;;;;;;1.00;0.80;;;21.30;97.00;;;;;;5033702;28;20047;-19
2023/09/18 06:52:58;;;;;;;1.63;0.98;;;21.30;97.00;;;;;;5014364;28;20471;-19
2023/09/18 06:55:24;;;;;;;0.70;0.70;;;21.40;97.70;;;;;;5027160;28;20017;-19
2023/09/18 06:57:51;;;;;;;1.67;1.00;;;21.20;97.10;;;;;;5029768;28;20552;-19
2023/09/18 07:00:20;;;;;;;1.90;0.93;;;21.20;97.10;;;;;;5015338;28;20037;-18
2023/09/18 07:02:46;;;;;;;2.00;1.10;;;21.30;97.10;;;;;;5019312;28;20025;-19
2023/09/18 07:05:12;;;;;;;2.65;1.13;;;21.30;97.10;;;;;;5037975;28;20040;-19
2023/09/18 07:07:38;;;;;;;3.50;1.00;;;21.60;97.80;;;;;;5033715;28;20020;-19
2023/09/18 07:10:04;;;;;;;1.38;0.90;;;21.30;97.20;;;;;;5015706;28;20442;-19
2023/09/18 07:12:31;;;;;;;1.00;0.80;;;21.30;97.20;;;;;;5031582;28;20071;-19
2023/09/18 07:14:58;;;;;;;1.13;0.90;;;21.40;97.20;;;;;;5026162;28;20037;-19
2023/09/18 07:17:24;;;;;;;2.00;1.10;;;21.40;97.20;;;;;;5032053;28;20095;-18
2023/09/18 07:19:49;;;;;;;1.92;1.30;;;21.40;97.20;;;;;;5034997;28;20032;-18
2023/09/18 07:22:15;;;;;;;1.70;1.10;;;21.40;97.20;;;;;;5028825;28;20618;-19
2023/09/18 07:24:42;;;;;;;2.00;1.10;;;21.50;97.20;;;;;;5017636;28;20017;-18
2023/09/18 07:27:08;;;;;;;1.10;1.00;;;21.50;97.10;;;;;;5027721;28;20051;-19
2023/09/18 07:29:34;;;;;;;1.55;1.02;;;21.50;97.10;;;;;;5024452;28;20021;-18
2023/09/18 07:32:01;;;;;;;1.70;1.10;;;21.50;97.00;;;;;;5029239;28;20800;-18
2023/09/18 07:34:27;;;;;;;1.55;1.15;;;21.50;97.30;;;;;;5022936;28;20247;-19
2023/09/18 07:36:55;;;;;;;1.53;1.10;;;21.50;97.30;;;;;;5044640;28;20081;-18
2023/09/18 07:39:21;;;;;;;1.40;1.30;;;21.60;97.30;;;;;;5006356;28;20319;-19
2023/09/18 07:41:47;;;;;;;1.80;1.20;;;21.60;97.30;;;;;;5043780;28;20027;-18
2023/09/18 07:44:19;;;;;;;1.80;1.30;;;21.60;97.20;;;;;;5029906;28;20347;-19
2023/09/18 07:46:45;;;;;;;2.13;1.10;;;21.70;97.20;;;;;;5025246;28;20039;-19
2023/09/18 07:49:11;;;;;;;1.88;1.25;;;21.70;97.80;;;;;;5003405;28;20718;-19
2023/09/18 07:51:37;;;;;;;2.53;1.47;;;21.80;98.40;;;;;;5041790;28;20035;-19
2023/09/18 07:54:03;;;;;;;2.38;1.40;;;22.00;98.90;;;;;;5015534;28;20033;-19
2023/09/18 07:56:33;;;;;;;1.83;1.27;;;22.20;99.90;;;;;;5032575;28;20150;-19
2023/09/18 07:58:58;;;;;;;2.33;1.40;;;22.60;99.90;;;;;;5037612;28;20017;-19
2023/09/18 08:01:24;;;;;;;1.63;1.30;;;23.10;99.90;;;;;;5023881;28;20146;-19
2023/09/18 08:03:50;;;;;;;2.03;1.30;;;23.60;99.90;;;;;;5027977;28;20059;-19
2023/09/18 08:06:18;;;;;;;3.30;1.40;;;24.10;99.90;;;;;;5016154;28;20032;-19
2023/09/18 08:08:45;;;;;;;2.78;1.30;;;24.60;99.90;;;;;;5029375;28;20249;-19
2023/09/18 08:11:11;;;;;;;4.68;1.50;;;25.00;99.90;;;;;;4992655;28;20143;-19
2023/09/18 08:13:37;;;;;;;2.83;1.30;;;25.40;99.90;;;;;;5040059;28;20243;-19
2023/09/18 08:16:05;;;;;;;1.50;1.27;;;25.80;99.90;;;;;;5014684;28;20044;-19
2023/09/18 08:18:31;;;;;;;2.13;1.20;;;26.20;99.90;;;;;;5036306;28;20803;-19
2023/09/18 08:20:58;;;;;;;2.45;1.20;;;26.60;99.90;;;;;;5024395;28;20025;-19
2023/09/18 08:23:27;;;;;;;2.70;1.40;;;26.90;99.90;;;;;;5039836;28;20320;-19
2023/09/18 08:25:57;;;;;;;1.88;1.10;;;27.20;99.50;;;;;;5005544;28;20399;-19
2023/09/18 08:28:23;;;;;;;1.83;1.20;;;27.50;99.40;;;;;;5031236;28;20017;-19
2023/09/18 08:30:48;;;;;;;1.75;1.10;;;27.70;97.40;;;;;;5025675;28;20037;-19
2023/09/18 08:33:14;;;;;;;2.63;1.50;;;27.80;96.70;;;;;;5021835;28;20022;-20
2023/09/18 08:35:40;;;;;;;1.80;1.20;;;27.80;95.60;;;;;;5024917;28;20024;-20
2023/09/18 08:38:06;;;;;;;2.45;1.20;;;27.70;94.80;;;;;;5039693;28;20020;-19
2023/09/18 08:40:33;;;;;;;3.73;1.50;;;27.60;94.90;;;;;;5033150;28;20282;-20
2023/09/18 08:43:00;;;;;;;2.30;1.40;;;27.50;94.60;;;;;;5017102;28;20024;-20
2023/09/18 08:45:54;;;;;;;2.33;1.60;;;27.30;94.40;;;;;;5028272;28;20246;-20
2023/09/18 08:48:21;;;;;;;2.08;1.65;;;27.10;91.70;;;;;;5024425;28;20470;-19
2023/09/18 08:50:48;;;;;;;2.43;1.60;;;26.90;93.20;;;;;;5031583;28;20048;-20
2023/09/18 08:53:14;;;;;;;3.80;2.10;;;26.70;92.80;;;;;;5040248;28;20025;-19
2023/09/18 08:55:40;;;;;;;4.18;1.88;;;26.40;92.80;;;;;;5049544;28;20089;-19
2023/09/18 08:58:10;;;;;;;2.53;2.08;;;26.10;92.80;;;;;;5002952;28;20025;-19
2023/09/18 09:00:38;;;;;;;2.88;1.80;;;25.90;92.70;;;;;;5040648;28;20134;-19
2023/09/18 09:03:04;;;;;;;3.33;2.10;;;25.60;92.30;;;;;;5014377;28;20128;-19
2023/09/18 09:05:31;;;;;;;3.17;1.90;;;27.60;93.20;;;;;;5037139;28;20056;-20
2023/09/18 09:07:57;;;;;;;2.75;1.88;;;25.20;92.90;;;;;;5035037;28;20438;-19
2023/09/18 09:10:22;;;;;;;3.80;2.13;;;25.10;93.10;;;;;;5043573;28;20261;-20
2023/09/18 09:12:54;;;;;;;2.70;2.10;;;25.00;93.20;;;;;;5036158;28;20105;-20
2023/09/18 09:15:26;;;;;;;5.72;3.75;;;24.90;93.50;;;;;;5023880;28;20025;-19
2023/09/18 09:18:02;;;;;;;2.67;1.90;;;24.80;93.30;;;;;;5036091;28;20020;-19
2023/09/18 09:20:28;;;;;;;2.10;1.90;;;24.80;94.00;;;;;;5041954;28;20652;-20
2023/09/18 09:23:09;;;;;;;3.63;2.20;;;24.70;93.60;;;;;;5028006;28;20451;-20
2023/09/18 09:25:36;;;;;;;3.20;2.10;;;24.70;93.10;;;;;;5042286;28;20021;-19
2023/09/18 09:28:07;;;;;;;3.65;2.30;;;24.70;93.50;;;;;;5027864;28;20024;-19
2023/09/18 09:30:35;;;;;;;5.15;2.50;;;24.60;93.00;;;;;;5016994;28;20375;-20
2023/09/18 09:33:03;;;;;;;3.57;2.23;;;24.50;93.20;;;;;;5034209;28;20020;-19
2023/09/18 09:35:31;;;;;;;2.83;2.00;;;24.50;92.80;;;;;;5023790;28;20173;-19
2023/09/18 09:38:00;;;;;;;2.38;1.83;;;24.30;93.00;;;;;;5045051;28;20024;-19
2023/09/18 09:40:27;;;;;;;3.00;1.95;;;24.30;93.20;;;;;;5052248;28;20084;-19
2023/09/18 09:43:00;;;;;;;3.22;2.00;;;24.30;93.30;;;;;;5046670;28;20087;-19
2023/09/18 09:45:28;;;;;;;2.60;1.60;;;24.20;93.20;;;;;;5009539;28;20029;-19
2023/09/18 09:47:55;;;;;;;2.60;1.75;;;24.20;93.30;;;;;;5043329;28;20028;-19
2023/09/18 09:50:21;;;;;;;2.72;1.65;;;24.10;93.30;;;;;;5019142;28;20029;-19
2023/09/18 09:52:49;;;;;;;2.70;1.85;;;24.10;93.30;;;;;;5046219;28;20040;-20
2023/09/18 09:55:33;;;;;;;6.35;1.90;;;24.10;93.10;;;;;;5025316;28;20032;-19
2023/09/18 09:58:01;;;;;;;2.30;1.57;;;24.00;92.60;;;;;;5037978;28;20035;-20
2023/09/18 10:00:36;;;;;;;2.55;1.55;;;24.00;93.20;;;;;;5016376;28;20225;-19
2023/09/18 10:03:04;;;;;;;2.58;1.67;;;24.00;92.90;;;;;;5038691;28;20036;-20
2023/09/18 10:05:37;;;;;;;2.42;1.60;;;24.00;93.10;;;;;;5011845;28;20582;-20
2023/09/18 10:08:21;;;;;;;3.10;1.80;;;23.90;92.80;;;;;;5023740;28;20259;-19
2023/09/18 10:10:52;;;;;;;1.57;1.33;;;23.90;92.80;;;;;;5031409;28;20039;-20
2023/09/18 10:13:27;;;;;;;3.17;1.45;;;23.90;93.20;;;;;;5015665;28;20128;-20
2023/09/18 10:15:56;;;;;;;2.75;1.60;;;23.80;93.10;;;;;;5039030;28;20045;-19
2023/09/18 10:18:24;;;;;;;3.55;1.80;;;23.80;93.40;;;;;;5021597;28;20176;-19
2023/09/18 10:20:53;;;;;;;2.92;1.75;;;23.90;93.50;;;;;;5027663;28;20033;-19
2023/09/18 10:23:44;;;;;;;2.50;1.80;;;23.80;93.30;;;;;;5030155;28;20510;-19
2023/09/18 10:26:11;;;;;;;2.72;1.75;;;24.90;94.00;;;;;;5021659;28;20029;-19
2023/09/18 10:28:37;;;;;;;2.85;1.83;;;23.80;93.60;;;;;;5044357;28;20013;-19
2023/09/18 10:31:04;;;;;;;3.50;1.75;;;23.80;93.70;;;;;;5023508;28;20525;-19
2023/09/18 10:33:30;;;;;;;3.58;1.90;;;23.90;94.00;;;;;;5016179;28;20090;-19
2023/09/18 10:35:58;;;;;;;4.17;2.00;;;24.00;93.80;;;;;;5024375;28;20302;-19
2023/09/18 10:38:25;;;;;;;2.92;1.50;;;24.00;93.90;;;;;;5027783;28;20056;-19
2023/09/18 10:40:55;;;;;;;3.60;1.77;;;24.00;94.00;;;;;;5016392;28;20031;-19
2023/09/18 10:43:21;;;;;;;3.40;1.70;;;24.10;94.10;;;;;;5044426;28;20024;-19
2023/09/18 10:45:49;;;;;;;2.37;1.80;;;24.20;94.10;;;;;;5027552;28;20432;-19
2023/09/18 10:48:17;;;;;;;3.00;1.60;;;24.30;93.80;;;;;;5017715;28;20427;-19
2023/09/18 10:50:43;;;;;;;3.45;1.75;;;24.30;93.70;;;;;;5025378;28;20494;-19
2023/09/18 10:53:13;;;;;;;3.78;1.80;;;24.40;93.60;;;;;;5028533;28;20554;-19
2023/09/18 10:55:39;;;;;;;3.35;1.88;;;24.40;93.10;;;;;;5034000;28;20490;-19
2023/09/18 10:58:04;;;;;;;2.23;1.50;;;24.40;93.30;;;;;;5032215;28;20118;-19
2023/09/18 11:00:36;;;;;;;1.98;1.60;;;24.40;93.40;;;;;;5043240;28;20037;-19
2023/09/18 11:03:14;;;;;;;3.63;1.80;;;24.40;93.30;;;;;;5002547;28;20495;-19
2023/09/18 11:05:40;;;;;;;3.63;1.60;;;24.50;92.50;;;;;;5036685;28;20491;-19
2023/09/18 11:08:29;;;;;;;2.53;1.70;;;24.50;93.50;;;;;;5035816;28;20036;-19
2023/09/18 11:11:04;;;;;;;3.78;1.77;;;24.50;92.50;;;;;;5023188;28;20169;-19
2023/09/18 11:13:40;;;;;;;2.35;1.70;;;24.60;93.70;;;;;;5025051;28;20025;-19
2023/09/18 11:16:19;;;;;;;3.30;1.73;;;24.70;93.70;;;;;;5027843;28;20221;-19
2023/09/18 11:18:52;;;;;;;2.07;1.80;;;25.10;94.60;;;;;;5036554;28;20432;-19
2023/09/18 11:21:23;;;;;;;2.75;1.95;;;25.50;95.70;;;;;;5027146;28;20062;-19
2023/09/18 11:24:02;;;;;;;3.22;2.00;;;26.00;97.10;;;;;;5011370;28;20061;-19
2023/09/18 11:26:36;;;;;;;2.03;1.63;;;26.50;95.30;;;;;;5037994;28;20215;-19
2023/09/18 11:29:05;;;;;;;2.80;1.63;;;27.00;95.30;;;;;;5023699;28;20052;-19
2023/09/18 11:31:55;;;;;;;2.83;1.90;;;27.50;96.60;;;;;;5027781;28;20325;-19
2023/09/18 11:34:23;;;;;;;3.25;1.60;;;28.00;93.60;;;;;;5012166;28;21755;-19
2023/09/18 11:36:50;;;;;;;3.13;1.90;;;28.40;95.10;;;;;;5026620;28;20035;-19
2023/09/18 11:39:41;;;;;;;3.03;1.67;;;28.70;94.70;;;;;;5028753;28;20491;-19
2023/09/18 11:42:12;;;;;;;2.20;1.80;;;29.00;92.70;;;;;;5035285;28;20679;-19
2023/09/18 11:44:45;;;;;;;2.83;1.60;;;29.20;93.10;;;;;;5033307;28;20040;-19
2023/09/18 11:47:21;;;;;;;2.20;1.60;;;29.30;91.70;;;;;;5030241;28;20854;-20
2023/09/18 11:49:58;;;;;;;2.67;1.85;;;29.20;88.10;;;;;;5007779;28;20029;-20
2023/09/18 11:52:29;;;;;;;2.30;1.40;;;28.90;87.30;;;;;;5026785;28;20032;-19
2023/09/18 11:54:59;;;;;;;2.13;1.50;;;28.60;87.30;;;;;;5023684;28;20468;-19
2023/09/18 11:57:27;;;;;;;2.43;1.77;;;28.30;85.30;;;;;;5041785;28;20029;-19
2023/09/18 11:59:53;;;;;;;2.30;1.50;;;28.00;86.00;;;;;;5026435;28;20134;-19
2023/09/18 12:02:40;;;;;;;2.92;1.80;;;27.80;88.50;;;;;;5046866;28;20095;-20
2023/09/18 12:05:17;;;;;;;3.45;1.85;;;27.70;87.20;;;;;;5013718;28;20045;-19
2023/09/18 12:07:47;;;;;;;2.60;1.43;;;27.70;88.30;;;;;;5036172;28;20165;-19
2023/09/18 12:10:16;;;;;;;3.03;1.60;;;27.00;89.80;;;;;;5018408;28;20021;-19
2023/09/18 12:12:43;;;;;;;1.73;1.50;;;28.10;91.30;;;;;;5029676;28;20473;-19
2023/09/18 12:15:14;;;;;;;2.72;1.60;;;28.40;91.60;;;;;;5022520;28;20029;-19
2023/09/18 12:17:40;;;;;;;3.80;1.63;;;28.60;91.10;;;;;;5034320;28;20328;-19
2023/09/18 12:20:06;;;;;;;2.83;1.70;;;29.00;91.70;;;;;;5030156;28;20040;-19
2023/09/18 12:22:38;;;;;;;2.70;1.63;;;29.30;91.70;;;;;;4987840;28;20048;-19
2023/09/18 12:25:14;;;;;;;1.85;1.50;;;29.50;90.70;;;;;;5029117;28;20119;-19
2023/09/18 12:27:44;;;;;;;1.90;1.50;;;29.90;89.30;;;;;;5028834;28;20048;-19
2023/09/18 12:30:11;;;;;;;1.57;1.37;;;29.00;87.80;;;;;;5027435;28;20028;-19
2023/09/18 12:32:38;;;;;;;2.30;1.50;;;30.30;90.20;;;;;;5019917;28;20276;-19
2023/09/18 12:35:07;;;;;;;3.10;1.77;;;30.50;89.90;;;;;;5029780;28;20391;-19
2023/09/18 12:37:42;;;;;;;2.10;1.40;;;30.70;89.40;;;;;;5008129;28;20538;-19
2023/09/18 12:40:21;;;;;;;1.83;1.27;;;30.90;85.40;;;;;;5025035;28;20033;-19
2023/09/18 12:42:47;;;;;;;2.50;1.67;;;31.00;83.30;;;;;;5037396;28;20495;-19
2023/09/18 12:45:13;;;;;;;2.40;1.60;;;31.10;86.30;;;;;;5031594;28;20086;-19
2023/09/18 12:47:40;;;;;;;1.98;1.45;;;31.20;85.70;;;;;;5048457;28;20602;-20
2023/09/18 12:50:07;;;;;;;2.30;1.25;;;31.30;86.30;;;;;;5036060;28;20496;-20
2023/09/18 12:52:33;;;;;;;2.35;1.25;;;31.40;86.70;;;;;;5015065;28;20129;-20